Time;durP1;ratioP1;P1;durP2;ratioP2;P2;SDS_P1;SDS_P2;PMS_P1;PMS_P2;Temp;Humidity;BMP_temperature;BMP_pressure;BME280_temperature;BME280_humidity;BME280_pressure;Samples;Min_cycle;Max_cycle;Signal;HPM_P1;HPM_P2
2022/10/23 00:02:17;;;;;;;9.63;3.97;;;11.70;99.90;;;;;;5033244;28;20021;-70
2022/10/23 00:04:42;;;;;;;10.02;4.15;;;11.70;99.90;;;;;;5015564;28;20030;-72
2022/10/23 00:07:08;;;;;;;9.18;4.00;;;11.60;99.90;;;;;;5033330;28;20045;-72
2022/10/23 00:09:34;;;;;;;13.32;4.32;;;11.50;99.90;;;;;;5031879;28;20029;-72
2022/10/23 00:11:59;;;;;;;9.70;4.40;;;11.50;99.90;;;;;;5031900;28;20071;-72
2022/10/23 00:14:25;;;;;;;9.35;4.57;;;11.50;99.90;;;;;;5033343;28;20038;-72
2022/10/23 00:16:50;;;;;;;7.88;4.00;;;11.40;99.90;;;;;;5032157;28;20033;-71
2022/10/23 00:19:16;;;;;;;9.27;3.90;;;11.40;99.90;;;;;;5033223;28;20029;-71
2022/10/23 00:21:42;;;;;;;11.43;3.95;;;11.30;99.90;;;;;;5016011;28;20095;-71
2022/10/23 00:24:08;;;;;;;11.52;4.30;;;11.30;99.90;;;;;;5015594;28;20022;-71
2022/10/23 00:26:33;;;;;;;8.93;4.15;;;11.20;99.90;;;;;;5015689;28;20049;-71
2022/10/23 00:28:59;;;;;;;7.78;4.25;;;11.20;99.90;;;;;;5016190;28;20068;-71
2022/10/23 00:31:25;;;;;;;11.40;4.35;;;11.30;99.90;;;;;;5033386;28;20029;-71
2022/10/23 00:33:51;;;;;;;14.18;4.32;;;11.30;99.90;;;;;;5032166;28;20445;-71
2022/10/23 00:36:18;;;;;;;9.13;3.92;;;11.30;99.90;;;;;;5033104;28;20049;-71
2022/10/23 00:38:45;;;;;;;14.30;4.25;;;11.30;99.90;;;;;;5032050;28;20056;-71
2022/10/23 00:41:22;;;;;;;8.82;3.58;;;11.30;99.90;;;;;;5033061;28;20160;-71
2022/10/23 00:44:28;;;;;;;6.47;4.00;;;11.30;99.90;;;;;;5015235;28;20022;-72
2022/10/23 00:46:54;;;;;;;12.63;4.05;;;11.30;99.90;;;;;;5015189;28;20028;-72
2022/10/23 00:49:21;;;;;;;10.90;4.28;;;11.20;99.90;;;;;;5032348;28;20087;-72
2022/10/23 00:51:50;;;;;;;12.82;5.38;;;11.10;99.90;;;;;;5016195;28;20022;-72
2022/10/23 00:54:18;;;;;;;11.52;5.93;;;11.10;99.90;;;;;;5015083;28;20033;-72
2022/10/23 00:56:45;;;;;;;9.48;4.35;;;11.10;99.90;;;;;;5031506;28;20032;-72
2022/10/23 00:59:11;;;;;;;17.02;4.20;;;11.10;99.90;;;;;;5033600;28;20029;-72
2022/10/23 01:01:37;;;;;;;8.77;3.90;;;11.10;99.90;;;;;;5036415;28;20079;-72
2022/10/23 01:04:05;;;;;;;10.63;3.88;;;11.10;99.90;;;;;;5035023;28;20025;-72
2022/10/23 01:06:35;;;;;;;8.35;3.53;;;11.10;99.90;;;;;;5036150;28;20570;-73
2022/10/23 01:09:04;;;;;;;4.90;3.60;;;11.10;99.90;;;;;;5018362;28;20427;-72
2022/10/23 01:11:42;;;;;;;11.45;3.83;;;11.00;99.90;;;;;;5036061;28;20029;-72
2022/10/23 01:14:28;;;;;;;9.70;3.53;;;11.00;99.90;;;;;;5036035;28;20030;-72
2022/10/23 01:17:08;;;;;;;12.13;4.28;;;11.00;99.90;;;;;;5034673;28;20103;-72
2022/10/23 01:20:00;;;;;;;13.05;4.22;;;11.00;99.90;;;;;;5035769;28;20155;-72
2022/10/23 01:22:25;;;;;;;11.77;3.97;;;11.00;99.90;;;;;;5018954;28;20021;-72
2022/10/23 01:25:01;;;;;;;12.35;4.28;;;11.00;99.90;;;;;;5034838;28;20079;-73
2022/10/23 01:27:30;;;;;;;8.35;4.07;;;11.00;99.90;;;;;;5018841;28;20080;-73
2022/10/23 01:30:06;;;;;;;20.00;3.88;;;10.90;99.90;;;;;;5035659;28;20030;-73
2022/10/23 01:32:46;;;;;;;7.72;4.75;;;10.90;99.90;;;;;;5018752;28;20076;-73
2022/10/23 01:35:20;;;;;;;7.40;4.25;;;10.90;99.90;;;;;;5018263;28;20026;-73
2022/10/23 01:38:02;;;;;;;16.17;4.72;;;10.90;99.90;;;;;;5034401;28;20030;-73
2022/10/23 01:40:49;;;;;;;10.35;3.88;;;11.00;99.90;;;;;;5034546;28;20370;-71
2022/10/23 01:43:28;;;;;;;10.68;4.07;;;11.10;99.90;;;;;;5018473;28;20121;-71
2022/10/23 01:46:04;;;;;;;9.30;5.05;;;11.10;99.90;;;;;;5035613;28;20057;-71
2022/10/23 01:48:32;;;;;;;7.38;3.58;;;11.00;99.90;;;;;;5034466;28;20045;-71
2022/10/23 01:51:00;;;;;;;4.90;3.58;;;11.00;99.90;;;;;;5018704;28;20026;-71
2022/10/23 01:53:30;;;;;;;9.27;4.05;;;10.90;99.90;;;;;;5017692;28;20087;-71
2022/10/23 01:55:58;;;;;;;7.65;3.80;;;10.80;99.90;;;;;;5017608;28;20112;-71
2022/10/23 01:58:26;;;;;;;12.88;6.57;;;10.80;99.90;;;;;;5034471;28;20472;-71
2022/10/23 02:00:55;;;;;;;16.52;6.35;;;10.80;99.90;;;;;;5017646;28;20488;-71
2022/10/23 02:03:23;;;;;;;6.85;4.03;;;10.70;99.90;;;;;;5017543;28;20030;-71
2022/10/23 02:05:49;;;;;;;5.47;3.88;;;10.60;99.90;;;;;;5017558;28;20026;-71
2022/10/23 02:08:14;;;;;;;5.07;3.70;;;10.60;99.90;;;;;;5017488;28;20018;-71
2022/10/23 02:10:52;;;;;;;7.75;3.60;;;10.60;99.90;;;;;;5034470;28;20025;-71
2022/10/23 02:13:39;;;;;;;4.47;3.42;;;10.60;99.90;;;;;;5033884;28;20091;-71
2022/10/23 02:16:18;;;;;;;5.75;3.35;;;10.60;99.90;;;;;;5033900;28;20029;-71
2022/10/23 02:19:11;;;;;;;8.18;3.40;;;10.50;99.90;;;;;;5033663;28;20120;-71
2022/10/23 02:22:04;;;;;;;6.25;4.03;;;10.50;99.90;;;;;;5017174;28;20033;-71
2022/10/23 02:24:35;;;;;;;6.25;3.53;;;10.50;99.90;;;;;;5017289;28;20048;-71
2022/10/23 02:27:06;;;;;;;10.27;3.88;;;10.50;99.90;;;;;;5017220;28;20196;-71
2022/10/23 02:29:42;;;;;;;7.72;3.45;;;10.50;99.90;;;;;;5033944;28;20065;-71
2022/10/23 02:32:09;;;;;;;5.15;3.45;;;10.40;99.90;;;;;;5017643;28;20049;-71
2022/10/23 02:34:34;;;;;;;7.72;3.50;;;10.40;99.90;;;;;;5017898;28;20032;-71
2022/10/23 02:37:01;;;;;;;7.43;2.92;;;10.50;99.90;;;;;;5016965;28;20108;-71
2022/10/23 02:39:27;;;;;;;6.85;3.83;;;10.60;99.90;;;;;;5016807;28;20025;-71
2022/10/23 02:42:16;;;;;;;8.18;3.60;;;10.50;99.90;;;;;;5016934;28;20040;-71
2022/10/23 02:45:09;;;;;;;7.88;3.13;;;10.50;99.90;;;;;;5034782;28;20468;-71
2022/10/23 02:48:00;;;;;;;7.18;3.58;;;10.50;99.90;;;;;;5017107;28;20021;-71
2022/10/23 02:50:40;;;;;;;11.75;5.15;;;10.40;99.90;;;;;;5032957;28;20030;-71
2022/10/23 02:53:24;;;;;;;5.40;2.90;;;10.40;99.90;;;;;;5032880;28;20037;-71
2022/10/23 02:56:04;;;;;;;7.88;2.70;;;10.40;99.90;;;;;;5033042;28;20030;-71
2022/10/23 02:58:44;;;;;;;5.97;2.95;;;10.40;99.90;;;;;;5032743;28;20025;-71
2022/10/23 03:01:13;;;;;;;6.97;3.20;;;10.30;99.90;;;;;;5016235;28;20033;-70
2022/10/23 03:03:43;;;;;;;2.85;2.50;;;10.40;99.90;;;;;;5016270;28;20029;-70
2022/10/23 03:06:09;;;;;;;5.97;3.05;;;10.50;99.90;;;;;;5016661;28;20571;-71
2022/10/23 03:08:49;;;;;;;5.10;2.50;;;10.50;99.90;;;;;;5034115;28;20025;-71
2022/10/23 03:11:14;;;;;;;5.65;3.00;;;10.60;99.90;;;;;;5016467;28;20029;-71
2022/10/23 03:13:40;;;;;;;3.22;2.22;;;10.60;99.90;;;;;;5032848;28;20033;-71
2022/10/23 03:16:05;;;;;;;3.47;2.42;;;10.70;99.90;;;;;;5034333;28;20038;-71
2022/10/23 03:18:31;;;;;;;5.30;2.88;;;10.80;99.90;;;;;;5034027;28;20103;-71
2022/10/23 03:20:56;;;;;;;3.08;2.53;;;10.80;99.90;;;;;;5033892;28;20424;-70
2022/10/23 03:23:22;;;;;;;6.40;2.75;;;10.80;99.90;;;;;;5032993;28;20021;-70
2022/10/23 03:25:47;;;;;;;5.90;2.63;;;10.60;99.90;;;;;;5016995;28;20028;-70
2022/10/23 03:28:13;;;;;;;7.20;2.58;;;10.70;99.90;;;;;;5033550;28;20024;-70
2022/10/23 03:30:38;;;;;;;3.53;2.45;;;10.70;99.90;;;;;;5015798;28;20021;-71
2022/10/23 03:33:04;;;;;;;6.07;2.97;;;10.60;99.90;;;;;;5016134;28;20056;-71
2022/10/23 03:35:29;;;;;;;3.60;2.97;;;10.60;99.90;;;;;;5015829;28;20029;-71
2022/10/23 03:37:55;;;;;;;8.05;3.00;;;10.70;99.90;;;;;;5015981;28;20025;-70
2022/10/23 03:40:20;;;;;;;8.77;3.05;;;10.70;99.90;;;;;;5033784;28;20040;-72
2022/10/23 03:42:46;;;;;;;4.88;2.53;;;10.60;99.90;;;;;;5015723;28;20041;-72
2022/10/23 03:45:11;;;;;;;4.82;2.50;;;10.60;99.90;;;;;;5016874;28;20029;-72
2022/10/23 03:47:39;;;;;;;4.20;2.70;;;10.70;99.90;;;;;;5016136;28;20021;-72
2022/10/23 03:50:07;;;;;;;3.88;2.47;;;10.80;99.90;;;;;;5034082;28;20052;-71
2022/10/23 03:52:32;;;;;;;4.97;2.60;;;10.80;99.90;;;;;;5032836;28;20029;-71
2022/10/23 03:54:58;;;;;;;3.55;2.60;;;10.80;99.90;;;;;;5032452;28;20021;-71
2022/10/23 03:57:23;;;;;;;3.65;2.50;;;10.90;99.90;;;;;;5015683;28;20079;-72
2022/10/23 03:59:49;;;;;;;4.55;2.90;;;10.90;99.90;;;;;;5033455;28;20061;-72
2022/10/23 04:02:14;;;;;;;6.00;2.40;;;10.90;99.90;;;;;;5016509;28;20026;-72
2022/10/23 04:04:40;;;;;;;4.30;2.40;;;10.90;99.90;;;;;;5033451;28;20025;-72
2022/10/23 04:07:05;;;;;;;7.03;2.60;;;10.90;99.90;;;;;;5016507;28;20018;-72
2022/10/23 04:09:31;;;;;;;2.95;2.47;;;10.80;99.90;;;;;;5016122;28;20029;-72
2022/10/23 04:11:56;;;;;;;3.58;2.50;;;10.80;99.90;;;;;;5015893;28;20025;-71
2022/10/23 04:14:22;;;;;;;3.10;2.28;;;10.80;99.90;;;;;;5033989;28;20075;-71
2022/10/23 04:16:47;;;;;;;3.05;2.28;;;10.80;99.90;;;;;;5016218;28;20021;-71
2022/10/23 04:19:14;;;;;;;4.63;2.45;;;10.80;99.90;;;;;;5033542;28;20033;-71
2022/10/23 04:21:39;;;;;;;3.25;2.55;;;10.90;99.90;;;;;;5016592;28;20040;-71
2022/10/23 04:24:05;;;;;;;2.33;2.13;;;11.00;99.90;;;;;;5016380;28;20396;-72
2022/10/23 04:26:31;;;;;;;3.42;2.38;;;11.10;99.90;;;;;;5015501;28;20037;-73
2022/10/23 04:28:56;;;;;;;8.48;3.60;;;11.10;99.90;;;;;;5015316;28;20036;-72
2022/10/23 04:31:22;;;;;;;6.63;3.78;;;11.00;99.90;;;;;;5016289;28;20026;-72
2022/10/23 04:33:47;;;;;;;9.18;2.90;;;11.00;99.90;;;;;;5040300;28;20064;-72
2022/10/23 04:36:13;;;;;;;3.42;2.72;;;11.00;99.90;;;;;;5036930;28;20024;-72
2022/10/23 04:38:38;;;;;;;3.85;2.58;;;11.00;99.90;;;;;;5035596;28;20092;-72
2022/10/23 04:41:04;;;;;;;5.03;2.40;;;10.90;99.90;;;;;;5019438;28;20029;-72
2022/10/23 04:43:29;;;;;;;4.43;2.85;;;11.00;99.90;;;;;;5019967;28;20029;-72
2022/10/23 04:45:55;;;;;;;3.00;2.40;;;10.90;99.90;;;;;;5037020;28;20029;-72
2022/10/23 04:48:21;;;;;;;4.47;2.65;;;11.00;99.90;;;;;;5019245;28;20167;-72
2022/10/23 04:50:55;;;;;;;8.40;3.17;;;11.00;99.90;;;;;;5018813;28;20036;-72
2022/10/23 04:53:20;;;;;;;6.75;2.85;;;10.90;99.90;;;;;;5019523;28;20044;-72
2022/10/23 04:55:51;;;;;;;6.82;3.17;;;10.90;99.90;;;;;;5018888;28;20022;-72
2022/10/23 04:58:17;;;;;;;8.02;3.13;;;10.90;99.90;;;;;;5036024;28;20025;-72
2022/10/23 05:00:43;;;;;;;3.05;2.53;;;10.90;99.90;;;;;;5036550;28;20029;-71
2022/10/23 05:03:08;;;;;;;6.43;2.95;;;10.90;99.90;;;;;;5036604;28;20017;-71
2022/10/23 05:05:34;;;;;;;4.78;2.55;;;10.80;99.90;;;;;;5019558;28;20106;-71
2022/10/23 05:07:59;;;;;;;3.88;2.50;;;10.70;99.90;;;;;;5019345;28;20099;-71
2022/10/23 05:10:26;;;;;;;7.75;2.38;;;10.70;99.90;;;;;;5037559;28;20033;-71
2022/10/23 05:12:51;;;;;;;9.45;2.20;;;10.60;99.90;;;;;;5018581;28;20496;-72
2022/10/23 05:15:17;;;;;;;9.48;2.55;;;10.50;99.90;;;;;;5036618;28;20080;-72
2022/10/23 05:17:46;;;;;;;3.47;2.65;;;10.60;99.90;;;;;;5035920;28;20022;-71
2022/10/23 05:20:17;;;;;;;6.75;2.17;;;10.50;99.90;;;;;;5018559;28;20029;-71
2022/10/23 05:22:44;;;;;;;5.60;2.28;;;10.40;99.90;;;;;;5018398;28;20017;-71
2022/10/23 05:25:11;;;;;;;3.28;2.30;;;10.40;99.90;;;;;;5024292;28;20025;-72
2022/10/23 05:27:37;;;;;;;3.88;2.28;;;10.50;99.90;;;;;;5040915;28;20036;-72
2022/10/23 05:30:03;;;;;;;5.13;2.20;;;10.50;99.90;;;;;;5035703;28;20021;-73
2022/10/23 05:32:31;;;;;;;4.47;2.10;;;10.50;99.90;;;;;;5035794;28;20539;-72
2022/10/23 05:34:57;;;;;;;2.90;2.05;;;10.50;99.90;;;;;;5018088;28;20160;-72
2022/10/23 05:37:23;;;;;;;6.70;2.33;;;10.50;99.90;;;;;;5018973;28;20029;-72
2022/10/23 05:39:49;;;;;;;5.13;2.35;;;10.40;99.90;;;;;;5017774;28;20036;-71
2022/10/23 05:42:14;;;;;;;8.07;2.47;;;10.30;99.90;;;;;;5036189;28;20018;-70
2022/10/23 05:44:40;;;;;;;7.50;2.70;;;10.30;99.90;;;;;;5034910;28;20017;-70
2022/10/23 05:47:06;;;;;;;3.95;2.75;;;10.30;99.90;;;;;;5018013;28;20024;-72
2022/10/23 05:49:32;;;;;;;9.43;2.67;;;10.20;99.90;;;;;;5018300;28;20029;-71
2022/10/23 05:51:57;;;;;;;8.32;2.78;;;10.10;99.90;;;;;;5018119;28;20029;-71
2022/10/23 05:54:23;;;;;;;4.07;2.65;;;10.20;99.90;;;;;;5017848;28;20045;-71
2022/10/23 05:56:48;;;;;;;7.97;3.25;;;10.20;99.90;;;;;;5017729;28;20113;-70
2022/10/23 07:35:46;;;;;;;5.85;3.20;;;11.20;99.90;;;;;;4990712;23;20138;-77
2022/10/23 07:38:12;;;;;;;7.03;3.28;;;11.30;99.90;;;;;;4976840;28;20027;-77
2022/10/23 07:40:38;;;;;;;3.28;2.42;;;11.30;99.90;;;;;;4976486;28;20485;-77
2022/10/23 07:43:03;;;;;;;6.40;3.38;;;11.40;99.90;;;;;;4976859;28;20112;-77
2022/10/23 07:45:29;;;;;;;5.97;3.10;;;11.40;99.90;;;;;;4993954;28;20022;-76
2022/10/23 07:47:54;;;;;;;4.30;2.90;;;11.50;99.90;;;;;;4994129;28;20026;-77
2022/10/23 07:50:20;;;;;;;3.42;2.65;;;11.60;99.90;;;;;;4976517;28;20121;-77
2022/10/23 07:52:45;;;;;;;5.78;2.80;;;11.70;99.90;;;;;;4976367;28;20030;-77
2022/10/23 07:55:12;;;;;;;5.20;3.50;;;11.80;99.90;;;;;;4993892;28;20026;-77
2022/10/23 07:57:38;;;;;;;6.97;3.50;;;11.90;99.90;;;;;;4976421;28;20029;-77
2022/10/23 08:00:05;;;;;;;4.13;3.05;;;12.00;99.90;;;;;;4976645;28;20049;-77
2022/10/23 08:02:30;;;;;;;4.30;2.90;;;12.00;99.90;;;;;;4993613;28;20103;-78
2022/10/23 08:04:56;;;;;;;5.13;2.90;;;12.10;99.90;;;;;;4976586;28;20117;-77
2022/10/23 08:07:22;;;;;;;7.22;3.22;;;12.20;99.90;;;;;;4994637;28;20077;-76
2022/10/23 08:09:47;;;;;;;4.72;2.78;;;12.30;99.90;;;;;;4982328;28;20030;-76
2022/10/23 08:12:13;;;;;;;7.07;2.60;;;12.30;99.90;;;;;;4983050;28;20030;-76
2022/10/23 08:14:38;;;;;;;4.63;3.05;;;12.40;99.90;;;;;;5000408;28;20018;-76
2022/10/23 08:17:04;;;;;;;4.53;3.15;;;12.30;99.90;;;;;;4982993;28;20034;-76
2022/10/23 08:19:30;;;;;;;7.32;3.25;;;12.30;99.90;;;;;;5000436;28;20028;-76
2022/10/23 08:21:56;;;;;;;3.75;2.50;;;12.40;99.90;;;;;;4982527;28;20089;-76
2022/10/23 08:24:22;;;;;;;3.83;3.10;;;12.50;99.90;;;;;;5000152;28;20029;-76
2022/10/23 08:26:49;;;;;;;3.85;2.95;;;12.50;99.90;;;;;;4982536;28;20031;-77
2022/10/23 08:29:14;;;;;;;5.97;2.75;;;12.70;99.90;;;;;;5000063;28;20029;-76
2022/10/23 08:31:40;;;;;;;3.53;2.53;;;12.80;99.90;;;;;;4982547;28;20018;-77
2022/10/23 08:34:05;;;;;;;3.55;2.53;;;12.80;99.90;;;;;;4982440;28;20024;-76
2022/10/23 08:36:32;;;;;;;3.95;2.47;;;12.90;99.90;;;;;;4982707;28;20030;-76
2022/10/23 08:38:58;;;;;;;3.40;2.80;;;12.90;99.90;;;;;;4982819;28;20065;-77
2022/10/23 08:41:35;;;;;;;5.95;2.65;;;13.00;99.90;;;;;;5000133;28;20054;-77
2022/10/23 08:44:23;;;;;;;3.72;2.78;;;13.10;99.90;;;;;;4999923;28;20027;-76
2022/10/23 08:47:08;;;;;;;5.00;2.97;;;13.10;99.90;;;;;;4982283;28;20027;-76
2022/10/23 08:49:52;;;;;;;6.53;3.88;;;13.10;99.90;;;;;;4999841;28;20022;-76
2022/10/23 08:52:49;;;;;;;7.18;2.65;;;13.20;99.90;;;;;;4982250;28;20057;-76
2022/10/23 08:55:26;;;;;;;4.47;3.05;;;13.30;99.90;;;;;;4982613;28;20026;-76
2022/10/23 08:58:13;;;;;;;7.18;2.80;;;13.30;99.90;;;;;;4983038;28;20049;-76
2022/10/23 09:00:40;;;;;;;10.05;3.17;;;13.30;99.90;;;;;;4982235;28;20033;-76
2022/10/23 09:03:10;;;;;;;4.03;2.92;;;13.30;99.90;;;;;;4983006;28;20042;-76
2022/10/23 09:06:13;;;;;;;3.83;2.53;;;13.30;99.90;;;;;;4999603;28;20481;-76
2022/10/23 09:09:06;;;;;;;4.72;2.67;;;13.30;99.90;;;;;;4982209;28;20054;-76
2022/10/23 09:11:41;;;;;;;4.20;2.38;;;13.40;99.90;;;;;;4954199;28;20042;-76
2022/10/23 09:14:29;;;;;;;5.28;2.55;;;13.40;99.90;;;;;;4982394;28;20045;-76
2022/10/23 09:17:12;;;;;;;3.42;2.30;;;13.50;99.90;;;;;;4999601;28;20022;-76
2022/10/23 09:19:37;;;;;;;3.78;2.50;;;13.50;99.90;;;;;;4980840;28;20508;-76
2022/10/23 09:22:05;;;;;;;4.90;2.70;;;13.50;99.90;;;;;;4996595;28;20026;-76
2022/10/23 09:24:32;;;;;;;3.92;2.60;;;13.60;99.90;;;;;;4979266;28;20054;-76
2022/10/23 09:26:59;;;;;;;6.13;2.70;;;13.70;99.90;;;;;;4979007;28;20026;-76
2022/10/23 09:29:31;;;;;;;3.47;2.70;;;13.80;99.90;;;;;;4979681;28;20038;-76
2022/10/23 09:31:59;;;;;;;8.70;3.80;;;13.90;99.90;;;;;;4978803;28;20109;-76
2022/10/23 09:34:30;;;;;;;8.80;4.78;;;13.90;99.90;;;;;;4978878;28;20026;-76
2022/10/23 09:36:59;;;;;;;8.70;4.47;;;13.90;99.90;;;;;;4979170;28;20125;-76
2022/10/23 09:39:30;;;;;;;8.20;4.18;;;14.00;99.90;;;;;;4978543;28;20041;-76
2022/10/23 09:41:57;;;;;;;10.20;3.70;;;14.10;99.90;;;;;;4978976;28;20023;-76
2022/10/23 09:44:28;;;;;;;10.38;3.47;;;14.10;99.90;;;;;;4978927;28;20026;-76
2022/10/23 09:46:59;;;;;;;5.90;3.22;;;14.10;99.90;;;;;;4978582;28;20023;-76
2022/10/23 09:49:30;;;;;;;5.32;2.60;;;14.20;99.90;;;;;;4996328;28;20026;-76
2022/10/23 09:52:06;;;;;;;4.10;2.83;;;14.30;99.90;;;;;;4979203;28;20025;-76
2022/10/23 09:54:47;;;;;;;9.20;2.75;;;14.30;99.90;;;;;;4979033;28;20031;-76
2022/10/23 09:57:22;;;;;;;6.00;2.50;;;14.40;99.90;;;;;;4979316;28;20114;-76
2022/10/23 10:00:04;;;;;;;8.15;2.95;;;14.50;99.90;;;;;;4995952;28;20105;-76
2022/10/23 10:02:48;;;;;;;4.20;2.60;;;14.50;99.90;;;;;;4978959;28;20022;-77
2022/10/23 10:05:52;;;;;;;6.88;3.08;;;14.60;99.90;;;;;;4978111;28;20023;-76
2022/10/23 10:08:49;;;;;;;11.65;2.80;;;14.70;99.90;;;;;;4995658;28;20025;-76
2022/10/23 10:11:30;;;;;;;9.55;3.08;;;14.70;99.90;;;;;;4994578;28;20038;-76
2022/10/23 10:14:27;;;;;;;5.88;3.22;;;14.70;99.90;;;;;;4978029;28;20547;-76
2022/10/23 10:17:25;;;;;;;3.42;2.47;;;14.70;99.90;;;;;;4977679;28;20034;-76
2022/10/23 10:20:05;;;;;;;5.05;3.00;;;14.70;99.90;;;;;;4977929;28;20022;-76
2022/10/23 10:23:06;;;;;;;6.32;3.20;;;14.80;99.90;;;;;;4978243;28;20026;-76
2022/10/23 10:26:30;;;;;;;5.47;3.20;;;14.90;99.90;;;;;;4995439;28;20021;-76
2022/10/23 10:29:12;;;;;;;5.25;2.58;;;14.90;99.90;;;;;;4881796;29;20029;-77
2022/10/23 10:31:48;;;;;;;8.98;2.65;;;14.90;99.90;;;;;;4881431;29;20039;-77
2022/10/23 10:35:01;;;;;;;7.22;1.67;;;14.90;99.90;;;;;;4897485;29;20041;-77
2022/10/23 10:37:58;;;;;;;3.53;1.40;;;15.00;99.90;;;;;;4881938;29;20056;-77
2022/10/23 10:40:36;;;;;;;3.55;1.90;;;15.00;99.90;;;;;;4881761;29;20540;-77
2022/10/23 10:43:20;;;;;;;4.45;2.05;;;15.10;99.90;;;;;;4881591;29;20029;-77
2022/10/23 10:45:58;;;;;;;2.78;1.30;;;15.30;99.90;;;;;;4881509;29;20028;-76
2022/10/23 10:48:48;;;;;;;3.42;1.70;;;15.50;99.90;;;;;;4881943;29;20505;-77
2022/10/23 10:51:36;;;;;;;4.72;1.70;;;15.40;99.90;;;;;;4880799;29;20039;-77
2022/10/23 10:54:55;;;;;;;5.57;1.52;;;15.30;99.90;;;;;;4881746;29;20119;-76
2022/10/23 11:00:22;;;;;;;4.57;1.70;;;15.40;99.90;;;;;;4967308;28;20041;-77
2022/10/23 11:02:55;;;;;;;4.25;1.85;;;15.40;99.90;;;;;;4977219;28;20033;-77
2022/10/23 11:05:40;;;;;;;1.77;1.52;;;15.40;99.90;;;;;;4977918;28;20031;-76
2022/10/23 11:08:28;;;;;;;3.28;1.50;;;15.40;99.90;;;;;;4978014;28;20156;-76
2022/10/23 11:11:53;;;;;;;5.78;1.58;;;15.40;99.90;;;;;;4977041;28;20053;-76
2022/10/23 11:14:29;;;;;;;3.17;1.42;;;15.60;99.90;;;;;;4993732;28;20516;-76
2022/10/23 11:17:51;;;;;;;2.33;1.33;;;15.60;99.90;;;;;;4976407;28;20041;-76
2022/10/23 11:20:55;;;;;;;4.93;1.40;;;15.70;99.90;;;;;;4881790;29;20148;-76
2022/10/23 11:23:53;;;;;;;1.95;1.20;;;15.70;99.90;;;;;;4896498;29;20037;-76
2022/10/23 11:26:50;;;;;;;2.58;1.20;;;15.90;99.90;;;;;;4880346;29;20040;-76
2022/10/23 11:30:07;;;;;;;7.28;1.02;;;16.00;99.90;;;;;;4896579;29;20036;-76
2022/10/23 11:36:32;;;;;;;3.88;1.48;;;16.10;99.90;;;;;;4870374;29;20041;-76
2022/10/23 11:39:29;;;;;;;4.47;1.38;;;16.20;99.90;;;;;;4877505;29;20032;-76
2022/10/23 11:42:15;;;;;;;2.65;1.38;;;16.10;99.90;;;;;;4878034;29;20523;-76
2022/10/23 11:44:55;;;;;;;4.10;1.27;;;16.10;99.90;;;;;;4861665;29;20069;-76
2022/10/23 11:47:43;;;;;;;3.05;0.98;;;16.00;99.90;;;;;;4878237;29;20044;-76
2022/10/23 11:50:29;;;;;;;2.45;1.30;;;16.10;99.90;;;;;;4878139;29;20056;-77
2022/10/23 11:53:11;;;;;;;3.50;1.23;;;16.20;99.90;;;;;;4861418;29;20030;-77
2022/10/23 11:56:06;;;;;;;4.43;1.30;;;16.20;99.90;;;;;;4933836;29;20036;-77
2022/10/23 11:59:04;;;;;;;4.03;1.40;;;16.30;99.90;;;;;;4918126;29;20031;-77
2022/10/23 12:02:12;;;;;;;3.85;1.50;;;16.50;99.90;;;;;;4933711;29;20459;-77
2022/10/23 12:04:49;;;;;;;3.30;1.50;;;16.40;99.90;;;;;;4933803;29;20487;-77
2022/10/23 12:07:37;;;;;;;5.40;1.55;;;16.20;99.90;;;;;;4917975;29;20039;-77
2022/10/23 12:10:33;;;;;;;13.90;2.50;;;16.10;99.90;;;;;;4918279;29;20028;-77
2022/10/23 12:13:28;;;;;;;5.10;1.40;;;16.10;99.90;;;;;;4948977;28;20031;-77
2022/10/23 12:16:12;;;;;;;1.50;1.17;;;16.20;99.90;;;;;;4979212;28;20102;-76
2022/10/23 12:19:22;;;;;;;5.28;1.45;;;16.20;99.90;;;;;;4993695;28;20033;-76
2022/10/23 12:22:13;;;;;;;3.38;1.23;;;16.30;99.90;;;;;;4993679;28;20026;-76
2022/10/23 12:25:03;;;;;;;7.93;1.17;;;16.40;99.90;;;;;;4975852;28;20041;-77
2022/10/23 12:27:53;;;;;;;2.45;1.40;;;16.50;99.90;;;;;;4976251;28;20113;-77
2022/10/23 12:30:34;;;;;;;3.42;1.35;;;16.50;99.90;;;;;;4976007;28;20030;-77
2022/10/23 12:33:21;;;;;;;;;;;16.40;99.90;;;;;;4977669;28;20027;-78
2022/10/23 12:36:07;;;;;;;1.38;0.93;;;16.60;99.90;;;;;;4976105;28;20066;-78
2022/10/23 12:38:53;;;;;;;3.60;2.80;;;16.70;99.90;;;;;;4977913;28;20027;-78
2022/10/23 12:41:40;;;;;;;;;;;;;;;;;;;;;
2022/10/23 12:44:14;;;;;;;2.90;1.20;;;16.50;99.90;;;;;;4995285;28;20026;-78
2022/10/23 12:46:52;;;;;;;0.77;0.77;;;16.50;99.90;;;;;;4977409;28;20073;-78
2022/10/23 12:49:48;;;;;;;5.45;1.63;;;16.40;99.90;;;;;;4977754;28;20023;-77
2022/10/23 12:52:32;;;;;;;3.00;1.30;;;16.40;99.90;;;;;;4974296;28;20030;-77
2022/10/23 12:55:12;;;;;;;4.30;1.05;;;16.40;99.90;;;;;;4995464;28;20030;-76
2022/10/23 12:57:44;;;;;;;2.75;1.27;;;16.40;99.90;;;;;;4979971;28;20105;-77
2022/10/23 13:00:29;;;;;;;3.97;1.50;;;16.60;99.90;;;;;;4980018;28;20037;-77
2022/10/23 13:03:06;;;;;;;8.32;1.50;;;16.80;99.90;;;;;;4979706;28;20022;-77
2022/10/23 13:05:38;;;;;;;5.65;1.40;;;17.20;99.90;;;;;;4980761;28;20113;-77
2022/10/23 13:08:19;;;;;;;8.30;1.40;;;17.50;99.90;;;;;;4979555;28;20058;-77
2022/10/23 13:10:51;;;;;;;3.25;1.00;;;17.70;99.90;;;;;;4997402;28;20018;-76
2022/10/23 13:13:25;;;;;;;8.23;2.60;;;17.90;99.90;;;;;;4979210;28;20118;-77
2022/10/23 13:16:00;;;;;;;1.98;1.10;;;18.00;99.90;;;;;;4996830;28;20026;-76
2022/10/23 13:18:47;;;;;;;4.65;2.13;;;17.80;99.90;;;;;;4997660;28;20018;-77
2022/10/23 13:21:25;;;;;;;1.42;1.30;;;17.70;99.90;;;;;;4979109;28;20062;-77
2022/10/23 13:23:57;;;;;;;4.47;1.38;;;17.60;99.90;;;;;;4979138;28;20019;-77
2022/10/23 13:26:51;;;;;;;3.75;1.40;;;17.50;99.90;;;;;;4979063;28;20018;-77
2022/10/23 13:29:47;;;;;;;1.30;0.90;;;17.40;99.90;;;;;;4978992;28;20027;-77
2022/10/23 13:32:35;;;;;;;4.65;1.52;;;17.30;99.90;;;;;;4978839;28;20022;-78
2022/10/23 13:35:25;;;;;;;3.33;1.35;;;17.20;99.90;;;;;;4996276;28;20019;-77
2022/10/23 13:38:11;;;;;;;3.10;1.23;;;17.20;99.90;;;;;;4979007;28;20027;-77
2022/10/23 13:40:43;;;;;;;8.30;1.30;;;17.30;99.90;;;;;;4978749;28;20061;-77
2022/10/23 13:43:15;;;;;;;1.60;1.20;;;17.40;99.90;;;;;;4979118;28;20025;-77
2022/10/23 13:45:40;;;;;;;2.97;1.20;;;17.40;99.90;;;;;;4978556;28;20041;-77
2022/10/23 13:48:13;;;;;;;2.72;1.20;;;17.40;99.90;;;;;;4979027;28;20098;-77
2022/10/23 13:50:39;;;;;;;70.47;24.38;;;17.30;99.90;;;;;;4978484;28;20030;-77
2022/10/23 13:53:05;;;;;;;89.55;30.80;;;17.20;99.90;;;;;;4978530;28;20515;-77
2022/10/23 13:55:32;;;;;;;7.85;2.72;;;17.10;99.90;;;;;;4978462;28;20041;-77
2022/10/23 13:57:57;;;;;;;3.35;1.92;;;17.20;99.90;;;;;;4978746;28;20034;-77
2022/10/23 14:00:23;;;;;;;9.43;3.28;;;17.20;99.90;;;;;;4978711;28;20034;-77
2022/10/23 14:02:48;;;;;;;4.22;1.60;;;17.30;99.90;;;;;;4978961;28;20022;-77
2022/10/23 14:05:14;;;;;;;4.57;1.20;;;17.20;99.90;;;;;;4978457;28;20018;-77
2022/10/23 14:07:39;;;;;;;1.52;1.10;;;17.20;99.90;;;;;;4977960;28;20129;-77
2022/10/23 14:10:05;;;;;;;7.70;1.40;;;17.10;99.90;;;;;;4978212;28;20081;-77
2022/10/23 14:12:40;;;;;;;4.82;1.63;;;17.00;99.90;;;;;;4978504;28;20077;-77
2022/10/23 14:15:06;;;;;;;2.55;1.13;;;17.00;99.90;;;;;;4978289;28;20057;-77
2022/10/23 14:17:33;;;;;;;2.45;1.30;;;17.10;99.90;;;;;;4978493;28;20057;-77
2022/10/23 14:19:59;;;;;;;3.63;2.00;;;17.10;99.90;;;;;;4978189;28;20026;-77
2022/10/23 14:22:25;;;;;;;5.35;1.70;;;17.10;99.90;;;;;;4978183;28;20025;-77
2022/10/23 14:24:50;;;;;;;2.53;2.08;;;17.10;99.90;;;;;;4978179;28;20117;-77
2022/10/23 14:27:16;;;;;;;1.92;1.40;;;17.00;99.90;;;;;;4978399;28;20056;-77
2022/10/23 14:29:42;;;;;;;4.32;2.00;;;16.90;99.90;;;;;;4978316;28;20023;-77
2022/10/23 14:32:07;;;;;;;2.95;1.45;;;16.90;99.90;;;;;;4995262;28;20495;-77
2022/10/23 14:34:33;;;;;;;3.00;1.10;;;16.90;99.90;;;;;;4977779;28;20022;-77
2022/10/23 14:36:58;;;;;;;1.52;1.10;;;16.80;99.90;;;;;;4977400;28;20089;-77
2022/10/23 14:39:24;;;;;;;1.83;1.20;;;16.90;99.90;;;;;;4977909;28;20025;-77
2022/10/23 14:41:52;;;;;;;2.45;1.20;;;16.80;99.90;;;;;;4995144;28;20081;-77
2022/10/23 14:44:18;;;;;;;3.80;1.33;;;16.80;99.90;;;;;;4995036;28;20073;-77
2022/10/23 14:46:43;;;;;;;1.23;1.00;;;16.80;99.90;;;;;;4977733;28;20057;-77
2022/10/23 14:49:09;;;;;;;4.43;1.00;;;16.80;99.90;;;;;;4978630;28;20033;-77
2022/10/23 14:51:35;;;;;;;2.75;1.05;;;16.80;99.90;;;;;;4978096;28;20022;-77
2022/10/23 14:54:03;;;;;;;2.50;1.63;;;16.70;99.90;;;;;;4961937;28;20132;-77
2022/10/23 14:56:31;;;;;;;5.07;1.27;;;16.70;99.90;;;;;;4977299;28;20033;-77
2022/10/23 14:59:01;;;;;;;5.45;1.52;;;16.70;99.90;;;;;;4977332;28;20029;-78
2022/10/23 15:01:31;;;;;;;6.25;1.50;;;16.70;99.90;;;;;;4977621;28;20030;-77
2022/10/23 15:03:56;;;;;;;8.10;1.25;;;16.70;99.90;;;;;;4977346;28;20029;-78
2022/10/23 15:06:23;;;;;;;7.05;1.20;;;16.70;99.90;;;;;;4977479;28;20022;-77
2022/10/23 15:08:50;;;;;;;2.80;1.20;;;16.70;99.90;;;;;;4978049;28;20022;-77